KHTL/HTL METAR and TAF weather

Enter ICAO airport designator
Station Type Date Time Source
KHTL METAR 2021/01/17 17:53 UTC NOAA

KHTL 171753Z AUTO 33004KT 10SM FEW011 BKN021 OVC027 M01/M03 A2961 RMK AO2 SLP040 60001 T10061033 11006 21017 58009


Station Type Date Time Source
KHTL Decoded METAR 2021/01/17 17:53 UTC NOAA

ROSCOMMON COUNTY AIRPORT, MI, United States (KHTL) 44-21N 084-40W 351M
Jan 17, 2021 - 12:53 PM EST / 2021.01.17 1753 UTC
Wind: from the NNW (330 degrees) at 5 MPH (4 KT):0
Visibility: 10 mile(s):0
Sky conditions: overcast
Temperature: 30.9 F (-0.6 C)
Windchill: 26 F (-3 C):1
Dew Point: 26.1 F (-3.3 C)
Relative Humidity: 81%
Pressure (altimeter): 29.61 in. Hg (1002 hPa)
Pressure tendency: 0.03 inches (0.9 hPa) lower than three hours ago
ob: KHTL 171753Z AUTO 33004KT 10SM FEW011 BKN021 OVC027 M01/M03 A2961 RMK AO2 SLP040 60001 T10061033 11006 21017 58009
cycle: 18

Station Type Date Time Source
KHTL TAF UTC NOAA

Error!

Example: see airport list